sensor_id;sensor_type;location;lat;lon;timestamp;P1;durP1;ratioP1;P2;durP2;ratioP2
14377;SDS011;7272;53.668;9.578;2023-03-23T00:01:11;11.90;;;10.80;;
14377;SDS011;7272;53.668;9.578;2023-03-23T00:04:14;11.53;;;10.53;;
14377;SDS011;7272;53.668;9.578;2023-03-23T00:07:17;12.63;;;11.53;;
14377;SDS011;7272;53.668;9.578;2023-03-23T00:10:21;12.60;;;11.60;;
14377;SDS011;7272;53.668;9.578;2023-03-23T00:13:24;13.30;;;11.53;;
14377;SDS011;7272;53.668;9.578;2023-03-23T00:16:28;13.63;;;12.33;;
14377;SDS011;7272;53.668;9.578;2023-03-23T00:19:32;12.10;;;11.03;;
14377;SDS011;7272;53.668;9.578;2023-03-23T00:22:35;15.13;;;13.80;;
14377;SDS011;7272;53.668;9.578;2023-03-23T00:25:38;13.50;;;12.23;;
14377;SDS011;7272;53.668;9.578;2023-03-23T00:28:39;16.58;;;15.18;;
14377;SDS011;7272;53.668;9.578;2023-03-23T00:31:42;12.83;;;11.73;;
14377;SDS011;7272;53.668;9.578;2023-03-23T00:34:47;12.87;;;11.80;;
14377;SDS011;7272;53.668;9.578;2023-03-23T00:37:51;13.97;;;12.63;;
14377;SDS011;7272;53.668;9.578;2023-03-23T00:40:53;12.80;;;11.70;;
14377;SDS011;7272;53.668;9.578;2023-03-23T00:43:57;14.07;;;12.97;;
14377;SDS011;7272;53.668;9.578;2023-03-23T00:47:01;14.97;;;13.57;;
14377;SDS011;7272;53.668;9.578;2023-03-23T00:50:05;15.10;;;13.80;;
14377;SDS011;7272;53.668;9.578;2023-03-23T00:53:10;14.73;;;13.53;;
14377;SDS011;7272;53.668;9.578;2023-03-23T00:56:12;14.20;;;13.10;;
14377;SDS011;7272;53.668;9.578;2023-03-23T00:59:14;15.00;;;13.77;;
14377;SDS011;7272;53.668;9.578;2023-03-23T01:02:18;13.10;;;12.10;;
14377;SDS011;7272;53.668;9.578;2023-03-23T01:05:24;13.67;;;12.47;;
14377;SDS011;7272;53.668;9.578;2023-03-23T01:08:33;15.93;;;14.83;;
14377;SDS011;7272;53.668;9.578;2023-03-23T01:11:39;13.87;;;12.67;;
14377;SDS011;7272;53.668;9.578;2023-03-23T01:14:41;13.70;;;12.70;;
14377;SDS011;7272;53.668;9.578;2023-03-23T01:17:44;13.87;;;12.70;;
14377;SDS011;7272;53.668;9.578;2023-03-23T01:20:46;13.07;;;12.00;;
14377;SDS011;7272;53.668;9.578;2023-03-23T01:23:49;13.40;;;12.30;;
14377;SDS011;7272;53.668;9.578;2023-03-23T01:26:52;13.23;;;12.23;;
14377;SDS011;7272;53.668;9.578;2023-03-23T01:29:53;13.97;;;12.67;;
14377;SDS011;7272;53.668;9.578;2023-03-23T01:32:56;14.07;;;12.87;;
14377;SDS011;7272;53.668;9.578;2023-03-23T01:35:58;14.60;;;13.30;;
14377;SDS011;7272;53.668;9.578;2023-03-23T01:39:05;13.67;;;12.57;;
14377;SDS011;7272;53.668;9.578;2023-03-23T01:42:08;14.13;;;13.03;;
14377;SDS011;7272;53.668;9.578;2023-03-23T01:48:35;13.77;;;12.67;;
14377;SDS011;7272;53.668;9.578;2023-03-23T01:51:40;17.23;;;15.82;;
14377;SDS011;7272;53.668;9.578;2023-03-23T01:54:45;14.40;;;13.30;;
14377;SDS011;7272;53.668;9.578;2023-03-23T01:57:50;16.80;;;15.63;;
14377;SDS011;7272;53.668;9.578;2023-03-23T02:00:53;14.90;;;13.63;;
14377;SDS011;7272;53.668;9.578;2023-03-23T02:03:56;14.77;;;13.67;;
14377;SDS011;7272;53.668;9.578;2023-03-23T02:06:59;14.70;;;13.50;;
14377;SDS011;7272;53.668;9.578;2023-03-23T02:10:04;15.80;;;14.50;;
14377;SDS011;7272;53.668;9.578;2023-03-23T02:13:08;14.80;;;13.57;;
14377;SDS011;7272;53.668;9.578;2023-03-23T02:16:14;13.90;;;12.80;;
14377;SDS011;7272;53.668;9.578;2023-03-23T02:19:27;15.20;;;13.90;;
14377;SDS011;7272;53.668;9.578;2023-03-23T02:22:48;14.07;;;12.97;;
14377;SDS011;7272;53.668;9.578;2023-03-23T02:26:19;14.90;;;13.70;;
14377;SDS011;7272;53.668;9.578;2023-03-23T02:29:55;14.50;;;13.40;;
14377;SDS011;7272;53.668;9.578;2023-03-23T02:33:20;13.83;;;12.70;;
14377;SDS011;7272;53.668;9.578;2023-03-23T02:36:44;14.17;;;12.87;;
14377;SDS011;7272;53.668;9.578;2023-03-23T02:39:52;17.13;;;15.75;;
14377;SDS011;7272;53.668;9.578;2023-03-23T02:42:58;14.67;;;13.47;;
14377;SDS011;7272;53.668;9.578;2023-03-23T02:46:04;14.07;;;12.97;;
14377;SDS011;7272;53.668;9.578;2023-03-23T02:49:11;15.87;;;14.47;;
14377;SDS011;7272;53.668;9.578;2023-03-23T02:52:16;15.73;;;14.43;;
14377;SDS011;7272;53.668;9.578;2023-03-23T02:55:21;14.50;;;13.40;;
14377;SDS011;7272;53.668;9.578;2023-03-23T02:58:25;14.30;;;13.27;;
14377;SDS011;7272;53.668;9.578;2023-03-23T03:01:48;15.83;;;14.43;;
14377;SDS011;7272;53.668;9.578;2023-03-23T03:04:58;15.23;;;13.93;;
14377;SDS011;7272;53.668;9.578;2023-03-23T03:08:07;14.67;;;13.30;;
14377;SDS011;7272;53.668;9.578;2023-03-23T03:11:18;14.77;;;13.37;;
14377;SDS011;7272;53.668;9.578;2023-03-23T03:14:23;13.57;;;12.47;;
14377;SDS011;7272;53.668;9.578;2023-03-23T03:17:31;14.50;;;13.30;;
14377;SDS011;7272;53.668;9.578;2023-03-23T03:20:38;17.13;;;15.82;;
14377;SDS011;7272;53.668;9.578;2023-03-23T03:23:45;15.30;;;14.18;;
14377;SDS011;7272;53.668;9.578;2023-03-23T03:26:51;13.40;;;12.40;;
14377;SDS011;7272;53.668;9.578;2023-03-23T03:30:09;13.83;;;12.63;;
14377;SDS011;7272;53.668;9.578;2023-03-23T03:33:16;14.43;;;13.23;;
14377;SDS011;7272;53.668;9.578;2023-03-23T03:36:22;14.97;;;13.77;;
14377;SDS011;7272;53.668;9.578;2023-03-23T03:39:27;13.80;;;12.67;;
14377;SDS011;7272;53.668;9.578;2023-03-23T03:42:29;13.73;;;12.53;;
14377;SDS011;7272;53.668;9.578;2023-03-23T03:45:31;13.67;;;12.60;;
14377;SDS011;7272;53.668;9.578;2023-03-23T03:48:33;13.40;;;12.37;;
14377;SDS011;7272;53.668;9.578;2023-03-23T03:51:37;13.03;;;11.93;;
14377;SDS011;7272;53.668;9.578;2023-03-23T03:54:41;13.80;;;12.80;;
14377;SDS011;7272;53.668;9.578;2023-03-23T03:57:43;14.00;;;12.90;;
14377;SDS011;7272;53.668;9.578;2023-03-23T04:01:04;14.00;;;12.90;;
14377;SDS011;7272;53.668;9.578;2023-03-23T04:04:10;14.90;;;13.80;;
14377;SDS011;7272;53.668;9.578;2023-03-23T04:07:13;16.30;;;15.10;;
14377;SDS011;7272;53.668;9.578;2023-03-23T04:10:18;15.50;;;14.40;;
14377;SDS011;7272;53.668;9.578;2023-03-23T04:13:26;12.87;;;11.77;;
14377;SDS011;7272;53.668;9.578;2023-03-23T04:16:37;12.83;;;11.83;;
14377;SDS011;7272;53.668;9.578;2023-03-23T04:19:39;13.67;;;12.57;;
14377;SDS011;7272;53.668;9.578;2023-03-23T04:22:42;13.07;;;12.00;;
14377;SDS011;7272;53.668;9.578;2023-03-23T04:25:45;12.80;;;11.80;;
14377;SDS011;7272;53.668;9.578;2023-03-23T04:28:47;12.40;;;11.37;;
14377;SDS011;7272;53.668;9.578;2023-03-23T04:32:22;12.87;;;11.80;;
14377;SDS011;7272;53.668;9.578;2023-03-23T04:35:27;12.63;;;11.73;;
14377;SDS011;7272;53.668;9.578;2023-03-23T04:38:46;13.30;;;12.30;;
14377;SDS011;7272;53.668;9.578;2023-03-23T04:41:55;13.77;;;12.67;;
14377;SDS011;7272;53.668;9.578;2023-03-23T04:45:20;13.60;;;12.40;;
14377;SDS011;7272;53.668;9.578;2023-03-23T04:48:25;13.17;;;12.07;;
14377;SDS011;7272;53.668;9.578;2023-03-23T04:51:41;15.45;;;14.38;;
14377;SDS011;7272;53.668;9.578;2023-03-23T04:55:15;15.00;;;13.82;;
14377;SDS011;7272;53.668;9.578;2023-03-23T04:58:23;14.23;;;13.13;;
14377;SDS011;7272;53.668;9.578;2023-03-23T05:01:51;12.87;;;11.87;;
14377;SDS011;7272;53.668;9.578;2023-03-23T05:04:55;12.80;;;11.80;;
14377;SDS011;7272;53.668;9.578;2023-03-23T05:07:59;13.90;;;12.77;;
14377;SDS011;7272;53.668;9.578;2023-03-23T05:11:05;13.90;;;12.80;;
14377;SDS011;7272;53.668;9.578;2023-03-23T05:14:12;13.60;;;12.43;;
14377;SDS011;7272;53.668;9.578;2023-03-23T05:17:16;13.30;;;12.30;;
14377;SDS011;7272;53.668;9.578;2023-03-23T05:20:19;12.70;;;11.60;;
14377;SDS011;7272;53.668;9.578;2023-03-23T05:23:24;13.00;;;11.77;;
14377;SDS011;7272;53.668;9.578;2023-03-23T05:26:34;13.07;;;12.03;;
14377;SDS011;7272;53.668;9.578;2023-03-23T05:29:49;13.17;;;12.00;;
14377;SDS011;7272;53.668;9.578;2023-03-23T05:32:52;12.77;;;11.67;;
14377;SDS011;7272;53.668;9.578;2023-03-23T05:36:17;14.57;;;13.57;;
14377;SDS011;7272;53.668;9.578;2023-03-23T05:39:39;13.60;;;12.60;;
14377;SDS011;7272;53.668;9.578;2023-03-23T05:43:15;13.10;;;11.97;;
14377;SDS011;7272;53.668;9.578;2023-03-23T05:46:27;12.37;;;11.37;;
14377;SDS011;7272;53.668;9.578;2023-03-23T05:49:33;13.00;;;11.93;;
14377;SDS011;7272;53.668;9.578;2023-03-23T05:52:37;12.70;;;11.70;;
14377;SDS011;7272;53.668;9.578;2023-03-23T05:55:43;12.37;;;11.37;;
14377;SDS011;7272;53.668;9.578;2023-03-23T05:59:12;11.70;;;10.80;;
14377;SDS011;7272;53.668;9.578;2023-03-23T06:02:17;12.27;;;11.27;;
14377;SDS011;7272;53.668;9.578;2023-03-23T06:05:19;11.63;;;10.63;;
14377;SDS011;7272;53.668;9.578;2023-03-23T06:08:27;12.17;;;11.10;;
14377;SDS011;7272;53.668;9.578;2023-03-23T06:11:30;12.10;;;11.10;;
14377;SDS011;7272;53.668;9.578;2023-03-23T06:14:51;10.23;;;9.43;;
14377;SDS011;7272;53.668;9.578;2023-03-23T06:17:59;10.77;;;9.60;;
14377;SDS011;7272;53.668;9.578;2023-03-23T06:21:10;9.80;;;9.00;;
14377;SDS011;7272;53.668;9.578;2023-03-23T06:24:41;11.23;;;10.37;;
14377;SDS011;7272;53.668;9.578;2023-03-23T06:27:44;10.63;;;9.85;;
14377;SDS011;7272;53.668;9.578;2023-03-23T06:30:48;9.00;;;8.30;;
14377;SDS011;7272;53.668;9.578;2023-03-23T06:33:51;9.40;;;8.53;;
14377;SDS011;7272;53.668;9.578;2023-03-23T06:36:59;9.93;;;8.50;;
14377;SDS011;7272;53.668;9.578;2023-03-23T06:40:19;8.10;;;7.40;;
14377;SDS011;7272;53.668;9.578;2023-03-23T06:43:29;8.27;;;7.57;;
14377;SDS011;7272;53.668;9.578;2023-03-23T06:46:48;8.43;;;7.73;;
14377;SDS011;7272;53.668;9.578;2023-03-23T06:50:00;7.57;;;6.97;;
14377;SDS011;7272;53.668;9.578;2023-03-23T06:53:02;7.47;;;6.90;;
14377;SDS011;7272;53.668;9.578;2023-03-23T06:56:05;7.17;;;6.60;;
14377;SDS011;7272;53.668;9.578;2023-03-23T06:59:08;7.80;;;7.20;;
14377;SDS011;7272;53.668;9.578;2023-03-23T07:02:13;7.50;;;6.90;;
14377;SDS011;7272;53.668;9.578;2023-03-23T07:05:18;7.27;;;6.60;;
14377;SDS011;7272;53.668;9.578;2023-03-23T07:08:23;7.67;;;7.07;;
14377;SDS011;7272;53.668;9.578;2023-03-23T07:11:26;7.60;;;7.00;;
14377;SDS011;7272;53.668;9.578;2023-03-23T07:14:30;7.63;;;7.07;;
14377;SDS011;7272;53.668;9.578;2023-03-23T07:17:34;7.50;;;6.90;;
14377;SDS011;7272;53.668;9.578;2023-03-23T07:20:46;6.63;;;6.13;;
14377;SDS011;7272;53.668;9.578;2023-03-23T07:23:49;6.30;;;5.70;;
14377;SDS011;7272;53.668;9.578;2023-03-23T07:27:04;5.40;;;4.90;;
14377;SDS011;7272;53.668;9.578;2023-03-23T07:30:07;5.00;;;4.60;;
14377;SDS011;7272;53.668;9.578;2023-03-23T07:33:11;4.43;;;4.03;;
14377;SDS011;7272;53.668;9.578;2023-03-23T07:36:12;4.50;;;3.90;;
14377;SDS011;7272;53.668;9.578;2023-03-23T07:39:15;3.70;;;3.30;;
14377;SDS011;7272;53.668;9.578;2023-03-23T07:42:18;3.77;;;2.87;;
14377;SDS011;7272;53.668;9.578;2023-03-23T07:45:29;2.80;;;2.50;;
14377;SDS011;7272;53.668;9.578;2023-03-23T07:48:33;2.73;;;2.30;;
14377;SDS011;7272;53.668;9.578;2023-03-23T07:51:36;2.80;;;2.30;;
14377;SDS011;7272;53.668;9.578;2023-03-23T07:54:40;2.60;;;2.40;;
14377;SDS011;7272;53.668;9.578;2023-03-23T07:57:52;3.10;;;2.00;;
14377;SDS011;7272;53.668;9.578;2023-03-23T08:00:54;2.23;;;1.70;;
14377;SDS011;7272;53.668;9.578;2023-03-23T08:03:59;2.60;;;1.57;;
14377;SDS011;7272;53.668;9.578;2023-03-23T08:07:11;2.73;;;1.80;;
14377;SDS011;7272;53.668;9.578;2023-03-23T08:10:20;2.77;;;1.80;;
14377;SDS011;7272;53.668;9.578;2023-03-23T08:13:42;3.40;;;1.60;;
14377;SDS011;7272;53.668;9.578;2023-03-23T08:17:03;2.93;;;1.60;;
14377;SDS011;7272;53.668;9.578;2023-03-23T08:20:22;2.60;;;1.87;;
14377;SDS011;7272;53.668;9.578;2023-03-23T08:23:28;2.57;;;1.90;;
14377;SDS011;7272;53.668;9.578;2023-03-23T08:26:47;3.00;;;1.70;;
14377;SDS011;7272;53.668;9.578;2023-03-23T08:30:09;2.43;;;1.73;;
14377;SDS011;7272;53.668;9.578;2023-03-23T08:33:39;3.90;;;1.87;;
14377;SDS011;7272;53.668;9.578;2023-03-23T08:36:57;1.77;;;1.43;;
14377;SDS011;7272;53.668;9.578;2023-03-23T08:40:20;2.60;;;1.80;;
14377;SDS011;7272;53.668;9.578;2023-03-23T08:43:36;2.50;;;2.03;;
14377;SDS011;7272;53.668;9.578;2023-03-23T08:46:52;3.97;;;2.10;;
14377;SDS011;7272;53.668;9.578;2023-03-23T08:50:18;2.97;;;2.03;;
14377;SDS011;7272;53.668;9.578;2023-03-23T08:53:35;5.53;;;2.40;;
14377;SDS011;7272;53.668;9.578;2023-03-23T08:56:58;3.13;;;2.03;;
14377;SDS011;7272;53.668;9.578;2023-03-23T09:00:12;3.60;;;2.23;;
14377;SDS011;7272;53.668;9.578;2023-03-23T09:03:43;4.70;;;2.37;;
14377;SDS011;7272;53.668;9.578;2023-03-23T09:06:58;6.57;;;2.87;;
14377;SDS011;7272;53.668;9.578;2023-03-23T09:10:02;5.53;;;2.47;;
14377;SDS011;7272;53.668;9.578;2023-03-23T09:13:04;4.63;;;2.60;;
14377;SDS011;7272;53.668;9.578;2023-03-23T09:16:07;6.53;;;3.00;;
14377;SDS011;7272;53.668;9.578;2023-03-23T09:19:10;6.00;;;2.80;;
14377;SDS011;7272;53.668;9.578;2023-03-23T09:22:12;5.07;;;2.90;;
14377;SDS011;7272;53.668;9.578;2023-03-23T09:25:17;4.17;;;2.47;;
14377;SDS011;7272;53.668;9.578;2023-03-23T09:28:21;4.63;;;3.03;;
14377;SDS011;7272;53.668;9.578;2023-03-23T09:31:23;6.90;;;2.97;;
14377;SDS011;7272;53.668;9.578;2023-03-23T09:34:27;5.17;;;2.83;;
14377;SDS011;7272;53.668;9.578;2023-03-23T09:37:29;4.60;;;2.80;;
14377;SDS011;7272;53.668;9.578;2023-03-23T09:40:36;3.87;;;2.57;;
14377;SDS011;7272;53.668;9.578;2023-03-23T09:43:52;6.03;;;2.63;;
14377;SDS011;7272;53.668;9.578;2023-03-23T09:47:02;5.50;;;2.30;;
14377;SDS011;7272;53.668;9.578;2023-03-23T09:50:13;4.67;;;2.50;;
14377;SDS011;7272;53.668;9.578;2023-03-23T09:53:19;4.10;;;2.37;;
14377;SDS011;7272;53.668;9.578;2023-03-23T09:56:26;5.20;;;2.53;;
14377;SDS011;7272;53.668;9.578;2023-03-23T09:59:34;4.23;;;2.30;;
14377;SDS011;7272;53.668;9.578;2023-03-23T10:02:41;6.47;;;2.50;;
14377;SDS011;7272;53.668;9.578;2023-03-23T10:05:48;6.63;;;2.70;;
14377;SDS011;7272;53.668;9.578;2023-03-23T10:08:53;4.30;;;2.07;;
14377;SDS011;7272;53.668;9.578;2023-03-23T10:12:02;6.65;;;2.80;;
14377;SDS011;7272;53.668;9.578;2023-03-23T10:15:12;5.50;;;2.80;;
14377;SDS011;7272;53.668;9.578;2023-03-23T10:18:17;8.43;;;2.43;;
14377;SDS011;7272;53.668;9.578;2023-03-23T10:21:23;5.97;;;2.43;;
14377;SDS011;7272;53.668;9.578;2023-03-23T10:24:26;5.23;;;2.23;;
14377;SDS011;7272;53.668;9.578;2023-03-23T10:27:38;6.73;;;2.47;;
14377;SDS011;7272;53.668;9.578;2023-03-23T10:30:45;5.80;;;2.43;;
14377;SDS011;7272;53.668;9.578;2023-03-23T10:33:50;7.43;;;2.77;;
14377;SDS011;7272;53.668;9.578;2023-03-23T10:36:58;7.03;;;2.73;;
14377;SDS011;7272;53.668;9.578;2023-03-23T10:40:05;7.33;;;2.80;;
14377;SDS011;7272;53.668;9.578;2023-03-23T10:43:16;6.60;;;2.60;;
14377;SDS011;7272;53.668;9.578;2023-03-23T10:46:22;7.67;;;2.90;;
14377;SDS011;7272;53.668;9.578;2023-03-23T10:49:32;6.53;;;3.38;;
14377;SDS011;7272;53.668;9.578;2023-03-23T10:52:39;9.18;;;3.40;;
14377;SDS011;7272;53.668;9.578;2023-03-23T10:55:43;5.47;;;2.50;;
14377;SDS011;7272;53.668;9.578;2023-03-23T10:58:48;5.80;;;2.90;;
14377;SDS011;7272;53.668;9.578;2023-03-23T11:01:52;6.17;;;2.73;;
14377;SDS011;7272;53.668;9.578;2023-03-23T11:04:56;7.30;;;2.70;;
14377;SDS011;7272;53.668;9.578;2023-03-23T11:08:03;6.53;;;2.90;;
14377;SDS011;7272;53.668;9.578;2023-03-23T11:11:15;8.90;;;2.90;;
14377;SDS011;7272;53.668;9.578;2023-03-23T11:14:23;6.40;;;3.30;;
14377;SDS011;7272;53.668;9.578;2023-03-23T11:17:27;10.23;;;3.10;;
14377;SDS011;7272;53.668;9.578;2023-03-23T11:20:42;8.73;;;3.60;;
14377;SDS011;7272;53.668;9.578;2023-03-23T11:23:48;9.37;;;2.83;;
14377;SDS011;7272;53.668;9.578;2023-03-23T11:26:51;7.67;;;2.63;;
14377;SDS011;7272;53.668;9.578;2023-03-23T11:29:56;8.00;;;3.40;;
14377;SDS011;7272;53.668;9.578;2023-03-23T11:33:01;7.00;;;3.15;;
14377;SDS011;7272;53.668;9.578;2023-03-23T11:36:05;7.33;;;2.90;;
14377;SDS011;7272;53.668;9.578;2023-03-23T11:39:20;4.87;;;2.43;;
14377;SDS011;7272;53.668;9.578;2023-03-23T11:42:24;8.23;;;3.30;;
14377;SDS011;7272;53.668;9.578;2023-03-23T11:45:35;9.13;;;2.97;;
14377;SDS011;7272;53.668;9.578;2023-03-23T11:48:42;6.93;;;2.70;;
14377;SDS011;7272;53.668;9.578;2023-03-23T11:51:49;6.43;;;2.97;;
14377;SDS011;7272;53.668;9.578;2023-03-23T11:54:56;7.80;;;2.63;;
14377;SDS011;7272;53.668;9.578;2023-03-23T11:58:07;5.93;;;2.30;;
14377;SDS011;7272;53.668;9.578;2023-03-23T12:01:18;6.50;;;2.70;;
14377;SDS011;7272;53.668;9.578;2023-03-23T12:04:30;8.20;;;3.03;;
14377;SDS011;7272;53.668;9.578;2023-03-23T12:07:45;8.88;;;3.50;;
14377;SDS011;7272;53.668;9.578;2023-03-23T12:10:57;7.55;;;3.00;;
14377;SDS011;7272;53.668;9.578;2023-03-23T12:14:12;10.37;;;3.10;;
14377;SDS011;7272;53.668;9.578;2023-03-23T12:17:23;8.07;;;2.90;;
14377;SDS011;7272;53.668;9.578;2023-03-23T12:20:35;7.97;;;2.77;;
14377;SDS011;7272;53.668;9.578;2023-03-23T12:23:48;9.17;;;3.30;;
14377;SDS011;7272;53.668;9.578;2023-03-23T12:26:59;6.13;;;2.50;;
14377;SDS011;7272;53.668;9.578;2023-03-23T12:30:12;6.47;;;2.50;;
14377;SDS011;7272;53.668;9.578;2023-03-23T12:33:26;7.10;;;3.23;;
14377;SDS011;7272;53.668;9.578;2023-03-23T12:36:40;7.77;;;2.50;;
14377;SDS011;7272;53.668;9.578;2023-03-23T12:40:02;6.53;;;3.60;;
14377;SDS011;7272;53.668;9.578;2023-03-23T12:43:23;5.17;;;2.70;;
14377;SDS011;7272;53.668;9.578;2023-03-23T12:46:34;6.68;;;2.95;;
14377;SDS011;7272;53.668;9.578;2023-03-23T12:49:58;7.28;;;3.03;;
14377;SDS011;7272;53.668;9.578;2023-03-23T12:53:03;8.27;;;2.97;;
14377;SDS011;7272;53.668;9.578;2023-03-23T12:56:13;6.57;;;2.50;;
14377;SDS011;7272;53.668;9.578;2023-03-23T12:59:21;6.63;;;2.70;;
14377;SDS011;7272;53.668;9.578;2023-03-23T13:02:28;4.97;;;2.40;;
14377;SDS011;7272;53.668;9.578;2023-03-23T13:05:38;4.43;;;2.37;;
14377;SDS011;7272;53.668;9.578;2023-03-23T13:08:47;6.33;;;3.00;;
14377;SDS011;7272;53.668;9.578;2023-03-23T13:11:53;8.57;;;3.10;;
14377;SDS011;7272;53.668;9.578;2023-03-23T13:14:59;8.10;;;3.10;;
14377;SDS011;7272;53.668;9.578;2023-03-23T13:18:13;4.47;;;2.50;;
14377;SDS011;7272;53.668;9.578;2023-03-23T13:21:24;5.18;;;2.80;;
14377;SDS011;7272;53.668;9.578;2023-03-23T13:24:29;6.33;;;3.60;;
14377;SDS011;7272;53.668;9.578;2023-03-23T13:27:34;5.53;;;3.00;;
14377;SDS011;7272;53.668;9.578;2023-03-23T13:30:36;4.23;;;2.80;;
14377;SDS011;7272;53.668;9.578;2023-03-23T13:33:39;5.50;;;2.50;;
14377;SDS011;7272;53.668;9.578;2023-03-23T13:36:53;5.57;;;3.23;;
14377;SDS011;7272;53.668;9.578;2023-03-23T13:39:57;7.37;;;3.60;;
14377;SDS011;7272;53.668;9.578;2023-03-23T13:43:13;4.73;;;3.23;;
14377;SDS011;7272;53.668;9.578;2023-03-23T13:46:28;7.57;;;3.50;;
14377;SDS011;7272;53.668;9.578;2023-03-23T13:49:31;6.60;;;3.43;;
14377;SDS011;7272;53.668;9.578;2023-03-23T13:52:39;5.13;;;3.30;;
14377;SDS011;7272;53.668;9.578;2023-03-23T13:55:51;5.07;;;3.45;;
14377;SDS011;7272;53.668;9.578;2023-03-23T13:59:06;5.57;;;3.23;;
14377;SDS011;7272;53.668;9.578;2023-03-23T14:05:34;2.93;;;2.40;;
14377;SDS011;7272;53.668;9.578;2023-03-23T14:08:40;4.57;;;2.60;;
14377;SDS011;7272;53.668;9.578;2023-03-23T14:11:48;4.00;;;2.67;;
14377;SDS011;7272;53.668;9.578;2023-03-23T14:14:59;4.83;;;3.17;;
14377;SDS011;7272;53.668;9.578;2023-03-23T14:18:07;8.50;;;2.80;;
14377;SDS011;7272;53.668;9.578;2023-03-23T14:21:14;5.07;;;2.23;;
14377;SDS011;7272;53.668;9.578;2023-03-23T14:24:19;5.13;;;2.03;;
14377;SDS011;7272;53.668;9.578;2023-03-23T14:27:24;4.87;;;2.30;;
14377;SDS011;7272;53.668;9.578;2023-03-23T14:30:33;4.50;;;2.40;;
14377;SDS011;7272;53.668;9.578;2023-03-23T14:33:37;3.60;;;2.30;;
14377;SDS011;7272;53.668;9.578;2023-03-23T14:36:41;4.10;;;2.53;;
14377;SDS011;7272;53.668;9.578;2023-03-23T14:39:46;4.80;;;2.30;;
14377;SDS011;7272;53.668;9.578;2023-03-23T14:42:50;4.90;;;2.20;;
14377;SDS011;7272;53.668;9.578;2023-03-23T14:45:55;5.50;;;2.33;;
14377;SDS011;7272;53.668;9.578;2023-03-23T14:49:00;4.70;;;2.50;;
14377;SDS011;7272;53.668;9.578;2023-03-23T14:52:08;6.17;;;2.57;;
14377;SDS011;7272;53.668;9.578;2023-03-23T14:55:13;3.80;;;2.40;;
14377;SDS011;7272;53.668;9.578;2023-03-23T14:58:18;3.77;;;2.53;;
14377;SDS011;7272;53.668;9.578;2023-03-23T15:01:23;6.03;;;2.83;;
14377;SDS011;7272;53.668;9.578;2023-03-23T15:04:27;5.63;;;2.50;;
14377;SDS011;7272;53.668;9.578;2023-03-23T15:07:33;7.28;;;2.88;;
14377;SDS011;7272;53.668;9.578;2023-03-23T15:10:37;4.43;;;2.67;;
14377;SDS011;7272;53.668;9.578;2023-03-23T15:13:42;4.27;;;2.60;;
14377;SDS011;7272;53.668;9.578;2023-03-23T15:16:46;4.80;;;2.20;;
14377;SDS011;7272;53.668;9.578;2023-03-23T15:19:50;4.20;;;2.03;;
14377;SDS011;7272;53.668;9.578;2023-03-23T15:22:53;3.77;;;2.20;;
14377;SDS011;7272;53.668;9.578;2023-03-23T15:25:57;3.23;;;2.30;;
14377;SDS011;7272;53.668;9.578;2023-03-23T15:32:24;6.10;;;2.30;;
14377;SDS011;7272;53.668;9.578;2023-03-23T15:35:32;5.43;;;2.57;;
14377;SDS011;7272;53.668;9.578;2023-03-23T15:38:36;5.90;;;2.23;;
14377;SDS011;7272;53.668;9.578;2023-03-23T15:41:46;2.10;;;1.90;;
14377;SDS011;7272;53.668;9.578;2023-03-23T15:44:55;4.53;;;2.20;;
14377;SDS011;7272;53.668;9.578;2023-03-23T15:48:04;3.27;;;2.07;;
14377;SDS011;7272;53.668;9.578;2023-03-23T15:51:12;4.30;;;2.40;;
14377;SDS011;7272;53.668;9.578;2023-03-23T15:54:15;4.43;;;2.50;;
14377;SDS011;7272;53.668;9.578;2023-03-23T15:57:19;5.00;;;2.70;;
14377;SDS011;7272;53.668;9.578;2023-03-23T16:00:21;6.27;;;2.20;;
14377;SDS011;7272;53.668;9.578;2023-03-23T16:03:25;3.17;;;2.00;;
14377;SDS011;7272;53.668;9.578;2023-03-23T16:06:29;4.70;;;2.17;;
14377;SDS011;7272;53.668;9.578;2023-03-23T16:09:33;4.47;;;2.00;;
14377;SDS011;7272;53.668;9.578;2023-03-23T16:12:36;3.08;;;2.15;;
14377;SDS011;7272;53.668;9.578;2023-03-23T16:15:38;4.27;;;2.10;;
14377;SDS011;7272;53.668;9.578;2023-03-23T16:18:40;2.67;;;1.90;;
14377;SDS011;7272;53.668;9.578;2023-03-23T16:21:42;3.17;;;1.80;;
14377;SDS011;7272;53.668;9.578;2023-03-23T16:24:44;2.77;;;1.80;;
14377;SDS011;7272;53.668;9.578;2023-03-23T16:27:47;2.40;;;1.77;;
14377;SDS011;7272;53.668;9.578;2023-03-23T16:30:50;4.33;;;2.13;;
14377;SDS011;7272;53.668;9.578;2023-03-23T16:33:52;2.30;;;2.10;;
14377;SDS011;7272;53.668;9.578;2023-03-23T16:36:54;2.70;;;2.33;;
14377;SDS011;7272;53.668;9.578;2023-03-23T16:39:56;3.37;;;2.13;;
14377;SDS011;7272;53.668;9.578;2023-03-23T16:42:59;3.67;;;2.57;;
14377;SDS011;7272;53.668;9.578;2023-03-23T16:46:01;4.18;;;2.60;;
14377;SDS011;7272;53.668;9.578;2023-03-23T16:49:03;3.70;;;2.38;;
14377;SDS011;7272;53.668;9.578;2023-03-23T16:52:05;3.83;;;2.30;;
14377;SDS011;7272;53.668;9.578;2023-03-23T16:55:08;3.60;;;2.40;;
14377;SDS011;7272;53.668;9.578;2023-03-23T16:58:13;4.57;;;2.63;;
14377;SDS011;7272;53.668;9.578;2023-03-23T17:01:15;4.33;;;2.20;;
14377;SDS011;7272;53.668;9.578;2023-03-23T17:04:17;3.87;;;2.40;;
14377;SDS011;7272;53.668;9.578;2023-03-23T17:07:19;3.13;;;2.53;;
14377;SDS011;7272;53.668;9.578;2023-03-23T17:10:21;4.27;;;2.50;;
14377;SDS011;7272;53.668;9.578;2023-03-23T17:13:25;3.60;;;2.40;;
14377;SDS011;7272;53.668;9.578;2023-03-23T17:16:27;4.50;;;2.33;;
14377;SDS011;7272;53.668;9.578;2023-03-23T17:19:29;2.63;;;2.13;;
14377;SDS011;7272;53.668;9.578;2023-03-23T17:22:31;6.13;;;3.70;;
14377;SDS011;7272;53.668;9.578;2023-03-23T17:25:33;4.20;;;2.40;;
14377;SDS011;7272;53.668;9.578;2023-03-23T17:28:36;3.43;;;2.50;;
14377;SDS011;7272;53.668;9.578;2023-03-23T17:31:38;3.90;;;2.30;;
14377;SDS011;7272;53.668;9.578;2023-03-23T17:34:40;5.43;;;2.67;;
14377;SDS011;7272;53.668;9.578;2023-03-23T17:37:42;4.83;;;2.20;;
14377;SDS011;7272;53.668;9.578;2023-03-23T17:40:44;2.83;;;2.20;;
14377;SDS011;7272;53.668;9.578;2023-03-23T17:43:48;4.43;;;2.20;;
14377;SDS011;7272;53.668;9.578;2023-03-23T17:46:50;3.30;;;2.33;;
14377;SDS011;7272;53.668;9.578;2023-03-23T17:49:52;3.33;;;2.60;;
14377;SDS011;7272;53.668;9.578;2023-03-23T17:52:54;3.85;;;2.58;;
14377;SDS011;7272;53.668;9.578;2023-03-23T17:55:57;3.50;;;2.50;;
14377;SDS011;7272;53.668;9.578;2023-03-23T17:59:00;4.80;;;2.40;;
14377;SDS011;7272;53.668;9.578;2023-03-23T18:02:02;3.20;;;2.57;;
14377;SDS011;7272;53.668;9.578;2023-03-23T18:05:04;4.87;;;2.50;;
14377;SDS011;7272;53.668;9.578;2023-03-23T18:08:08;4.23;;;2.80;;
14377;SDS011;7272;53.668;9.578;2023-03-23T18:11:10;4.27;;;2.50;;
14377;SDS011;7272;53.668;9.578;2023-03-23T18:14:13;4.70;;;2.50;;
14377;SDS011;7272;53.668;9.578;2023-03-23T18:17:15;2.70;;;2.50;;
14377;SDS011;7272;53.668;9.578;2023-03-23T18:20:17;3.67;;;2.77;;
14377;SDS011;7272;53.668;9.578;2023-03-23T18:23:20;6.23;;;2.70;;
14377;SDS011;7272;53.668;9.578;2023-03-23T18:26:22;3.77;;;3.17;;
14377;SDS011;7272;53.668;9.578;2023-03-23T18:29:26;3.83;;;3.17;;
14377;SDS011;7272;53.668;9.578;2023-03-23T18:32:28;4.63;;;2.90;;
14377;SDS011;7272;53.668;9.578;2023-03-23T18:35:30;3.47;;;2.50;;
14377;SDS011;7272;53.668;9.578;2023-03-23T18:38:32;2.63;;;2.30;;
14377;SDS011;7272;53.668;9.578;2023-03-23T18:41:33;2.93;;;2.33;;
14377;SDS011;7272;53.668;9.578;2023-03-23T18:44:37;3.73;;;3.00;;
14377;SDS011;7272;53.668;9.578;2023-03-23T18:47:39;2.67;;;2.47;;
14377;SDS011;7272;53.668;9.578;2023-03-23T18:50:44;4.63;;;2.43;;
14377;SDS011;7272;53.668;9.578;2023-03-23T18:53:47;4.97;;;2.93;;
14377;SDS011;7272;53.668;9.578;2023-03-23T18:56:49;4.00;;;2.57;;
14377;SDS011;7272;53.668;9.578;2023-03-23T18:59:52;4.77;;;2.70;;
14377;SDS011;7272;53.668;9.578;2023-03-23T19:02:54;4.33;;;2.50;;
14377;SDS011;7272;53.668;9.578;2023-03-23T19:05:56;3.42;;;3.13;;